createdAt,value
2023-11-27T00:02:26.025Z,97119.06
2023-11-27T00:04:52.787Z,97116.53
2023-11-27T00:07:19.677Z,97113.13
2023-11-27T00:09:46.242Z,97114.81
2023-11-27T00:12:12.847Z,97113.97
2023-11-27T00:14:39.408Z,97111.41
2023-11-27T00:17:06.008Z,97102.91
2023-11-27T00:19:32.630Z,97110.56
2023-11-27T00:21:59.198Z,97112.28
2023-11-27T00:24:26.668Z,97105.44
2023-11-27T00:26:53.176Z,97108.00
2023-11-27T00:29:19.731Z,97100.34
2023-11-27T00:31:46.316Z,97097.78
2023-11-27T00:34:12.953Z,97094.34
2023-11-27T00:36:39.718Z,97078.84
2023-11-27T00:39:10.112Z,97090.91
2023-11-27T00:41:36.706Z,97091.84
2023-11-27T00:44:03.361Z,97091.84
2023-11-27T00:46:29.919Z,97090.13
2023-11-27T00:48:56.566Z,97085.84
2023-11-27T00:51:23.903Z,97080.72
2023-11-27T00:53:50.404Z,97085.00
2023-11-27T00:56:16.946Z,97085.00
2023-11-27T00:58:43.533Z,97081.56
2023-11-27T01:01:10.158Z,97085.81
2023-11-27T01:03:37.571Z,97080.69
2023-11-27T01:06:05.624Z,97076.47
2023-11-27T01:08:32.191Z,97071.34
2023-11-27T01:10:58.716Z,97075.59
2023-11-27T01:13:26.185Z,97063.69
2023-11-27T01:15:57.754Z,97067.13
2023-11-27T01:18:24.687Z,97067.91
2023-11-27T01:20:51.427Z,97066.25
2023-11-27T01:23:17.937Z,97061.13
2023-11-27T01:25:44.475Z,97064.56
2023-11-27T01:28:11.944Z,97066.25
2023-11-27T01:30:39.018Z,97059.44
2023-11-27T01:33:06.197Z,97058.56
2023-11-27T01:35:33.106Z,97056.88
2023-11-27T01:37:59.652Z,97051.78
2023-11-27T01:40:26.211Z,97051.78
2023-11-27T01:42:52.806Z,97050.06
2023-11-27T01:45:19.430Z,97044.09
2023-11-27T01:47:46.005Z,97039.81
2023-11-27T01:50:12.595Z,97033.84
2023-11-27T01:52:41.986Z,97031.28
2023-11-27T01:55:09.277Z,97027.84
2023-11-27T01:57:35.863Z,97028.75
2023-11-27T02:00:04.709Z,97031.28
2023-11-27T02:02:32.242Z,97030.41
2023-11-27T02:04:58.884Z,97025.31
2023-11-27T02:07:25.467Z,97021.91
2023-11-27T02:09:52.002Z,97002.13
2023-11-27T02:12:18.524Z,97019.34
2023-11-27T02:14:46.309Z,97005.72
2023-11-27T02:17:12.871Z,97006.53
2023-11-27T02:19:39.451Z,97014.25
2023-11-27T02:22:06.411Z,97006.56
2023-11-27T02:24:33.007Z,97002.31
2023-11-27T02:26:59.512Z,97004.88
2023-11-27T02:29:26.069Z,96996.31
2023-11-27T02:31:52.798Z,96998.06
2023-11-27T02:34:19.484Z,96998.06
2023-11-27T02:36:46.057Z,96994.66
2023-11-27T02:39:15.921Z,96997.19
2023-11-27T02:41:42.909Z,96993.78
2023-11-27T02:44:10.686Z,96986.13
2023-11-27T02:46:37.609Z,96981.84
2023-11-27T02:49:04.396Z,96971.63
2023-11-27T02:51:30.972Z,96977.63
2023-11-27T02:53:57.552Z,96976.75
2023-11-27T02:56:24.789Z,96970.75
2023-11-27T02:58:51.423Z,96963.97
2023-11-27T03:01:18.036Z,96959.72
2023-11-27T03:03:44.772Z,96950.31
2023-11-27T03:06:12.141Z,96952.88
2023-11-27T03:08:38.924Z,96952.06
2023-11-27T03:11:05.703Z,96961.41
2023-11-27T03:13:32.292Z,96958.84
2023-11-27T03:15:58.892Z,96958.88
2023-11-27T03:18:25.657Z,96954.66
2023-11-27T03:20:52.200Z,96938.41
2023-11-27T03:23:18.799Z,96937.56
2023-11-27T03:25:45.343Z,96935.84
2023-11-27T03:28:12.008Z,96932.47
2023-11-27T03:30:39.736Z,96930.75
2023-11-27T03:33:06.318Z,96935.84
2023-11-27T03:35:32.868Z,96928.22
2023-11-27T03:37:59.369Z,96927.34
2023-11-27T03:40:26.011Z,96925.66
2023-11-27T03:42:52.635Z,96917.13
2023-11-27T03:45:19.252Z,96922.22
2023-11-27T03:47:45.801Z,96911.16
2023-11-27T03:50:12.345Z,96907.75
2023-11-27T03:52:38.877Z,96903.50
2023-11-27T03:55:05.704Z,96899.19
2023-11-27T03:57:32.352Z,96900.94
2023-11-27T03:59:58.881Z,96891.53
2023-11-27T04:02:25.734Z,96888.97
2023-11-27T04:04:52.313Z,96884.75
2023-11-27T04:07:18.898Z,96888.97
2023-11-27T04:09:45.455Z,96883.06
2023-11-27T04:12:12.035Z,96880.50
2023-11-27T04:14:38.581Z,96889.00
2023-11-27T04:17:05.353Z,96882.19
2023-11-27T04:19:31.977Z,96883.91
2023-11-27T04:21:58.532Z,96881.34
2023-11-27T04:24:25.115Z,96872.88
2023-11-27T04:26:51.648Z,96874.53
2023-11-27T04:29:19.329Z,96874.53
2023-11-27T04:31:45.968Z,96859.91
2023-11-27T04:34:12.612Z,96875.41
2023-11-27T04:36:39.151Z,96873.66
2023-11-27T04:39:05.717Z,96869.44
2023-11-27T04:41:32.659Z,96870.28
2023-11-27T04:43:59.253Z,96872.00
2023-11-27T04:46:26.060Z,96869.44
2023-11-27T04:48:52.723Z,96869.44
2023-11-27T04:51:19.570Z,96863.44
2023-11-27T04:53:46.277Z,96860.09
2023-11-27T04:56:12.881Z,96856.66
2023-11-27T04:58:39.411Z,96853.22
2023-11-27T05:01:06.176Z,96853.22
2023-11-27T05:03:32.819Z,96843.88
2023-11-27T05:06:00.023Z,96840.44
2023-11-27T05:08:27.071Z,96831.94
2023-11-27T05:10:53.633Z,96838.75
2023-11-27T05:13:20.252Z,96841.31
2023-11-27T05:15:46.845Z,96843.88
2023-11-27T05:18:14.131Z,96844.72
2023-11-27T05:20:40.709Z,96845.59
2023-11-27T05:23:08.812Z,96844.78
2023-11-27T05:25:35.398Z,96843.91
2023-11-27T05:28:02.028Z,96841.41
2023-11-27T05:30:28.597Z,96840.56
2023-11-27T05:32:55.195Z,96831.16
2023-11-27T05:35:21.943Z,96827.72
2023-11-27T05:37:48.474Z,96826.88
2023-11-27T05:40:15.216Z,96823.47
2023-11-27T05:42:42.006Z,96822.63
2023-11-27T05:45:12.029Z,96822.63
2023-11-27T05:47:42.007Z,96820.09
2023-11-27T05:50:10.963Z,96814.16
2023-11-27T05:52:37.753Z,96806.34
2023-11-27T05:55:04.806Z,96810.72
2023-11-27T05:57:31.640Z,96814.13
2023-11-27T05:59:58.286Z,96814.97
2023-11-27T06:02:24.864Z,96809.03
2023-11-27T06:04:51.459Z,96810.72
2023-11-27T06:07:18.152Z,96801.31
2023-11-27T06:09:46.003Z,96802.16
2023-11-27T06:12:13.124Z,96795.34
2023-11-27T06:14:40.810Z,96791.03
2023-11-27T06:17:07.808Z,96796.13
2023-11-27T06:19:34.578Z,96794.38
2023-11-27T06:22:01.282Z,96791.78
2023-11-27T06:24:29.315Z,96790.03
2023-11-27T06:26:56.192Z,96784.03
2023-11-27T06:29:23.325Z,96788.25
2023-11-27T06:31:50.097Z,96781.38
2023-11-27T06:34:17.513Z,96785.66
2023-11-27T06:36:44.258Z,96776.19
2023-11-27T06:39:10.839Z,96760.66
2023-11-27T06:41:37.419Z,96773.53
2023-11-27T06:44:04.117Z,96762.47
2023-11-27T06:46:30.843Z,96757.34
2023-11-27T06:48:57.565Z,96755.59
2023-11-27T06:51:24.126Z,96749.69
2023-11-27T06:53:50.676Z,96741.13
2023-11-27T06:56:17.166Z,96740.31
2023-11-27T06:58:43.785Z,96738.63
2023-11-27T07:01:13.507Z,96741.19
2023-11-27T07:03:40.188Z,96742.03
2023-11-27T07:06:07.280Z,96727.44
2023-11-27T07:08:35.769Z,96741.16
2023-11-27T07:11:04.011Z,96733.44
2023-11-27T07:13:31.020Z,96730.06
2023-11-27T07:15:57.874Z,96730.06
2023-11-27T07:18:28.144Z,96717.28
2023-11-27T07:20:59.006Z,96713.91
2023-11-27T07:23:27.949Z,96709.66
2023-11-27T07:25:54.849Z,96713.09
2023-11-27T07:28:21.445Z,96710.56
2023-11-27T07:30:48.019Z,96712.28
2023-11-27T07:33:15.792Z,96710.63
2023-11-27T07:35:42.396Z,96708.06
2023-11-27T07:38:08.964Z,96707.22
2023-11-27T07:40:35.597Z,96698.66
2023-11-27T07:43:11.956Z,96697.91
2023-11-27T07:45:39.078Z,96703.03
2023-11-27T07:48:05.857Z,96690.25
2023-11-27T07:50:32.499Z,96696.25
2023-11-27T07:52:59.050Z,96700.47
2023-11-27T07:55:25.606Z,96697.09
2023-11-27T07:57:52.255Z,96702.19
2023-11-27T08:00:19.014Z,96697.97
2023-11-27T08:02:45.828Z,96680.06
2023-11-27T08:05:13.200Z,96691.13
2023-11-27T08:07:40.016Z,96687.75
2023-11-27T08:10:09.509Z,96680.09
2023-11-27T08:12:39.201Z,96675.84
2023-11-27T08:15:09.303Z,96677.53
2023-11-27T08:17:36.172Z,96671.59
2023-11-27T08:20:06.611Z,96675.00
2023-11-27T08:22:33.323Z,96669.03
2023-11-27T08:25:01.519Z,96664.81
2023-11-27T08:27:28.311Z,96664.78
2023-11-27T08:29:54.874Z,96672.50
2023-11-27T08:32:21.477Z,96667.41
2023-11-27T08:34:48.011Z,96663.97
2023-11-27T08:37:17.732Z,96669.94
2023-11-27T08:39:44.659Z,96659.72
2023-11-27T08:42:11.241Z,96661.41
2023-11-27T08:44:39.055Z,96659.72
2023-11-27T08:47:06.442Z,96655.50
2023-11-27T08:49:33.107Z,96650.41
2023-11-27T08:51:59.655Z,96646.97
2023-11-27T08:54:33.211Z,96636.75
2023-11-27T08:57:00.082Z,96636.75
2023-11-27T08:59:27.011Z,96632.53
2023-11-27T09:01:53.731Z,96633.34
2023-11-27T09:04:20.508Z,96636.78
2023-11-27T09:06:47.179Z,96632.53
2023-11-27T09:09:13.770Z,96624.03
2023-11-27T09:11:40.387Z,96614.66
2023-11-27T09:14:07.194Z,96616.34
2023-11-27T09:16:33.857Z,96624.03
2023-11-27T09:19:00.684Z,96612.94
2023-11-27T09:21:27.516Z,96615.50
2023-11-27T09:23:55.627Z,96612.97
2023-11-27T09:26:22.268Z,96602.75
2023-11-27T09:28:48.835Z,96596.78
2023-11-27T09:31:16.416Z,96590.81
2023-11-27T09:33:43.031Z,96595.06
2023-11-27T09:36:15.019Z,96590.81
2023-11-27T09:38:42.079Z,96578.00
2023-11-27T09:41:09.119Z,96573.72
2023-11-27T09:43:37.128Z,96581.47
2023-11-27T09:46:06.883Z,96581.47
2023-11-27T09:48:40.032Z,96581.47
2023-11-27T09:51:09.628Z,96566.13
2023-11-27T09:53:41.965Z,96561.81
2023-11-27T09:56:09.950Z,96552.44
2023-11-27T09:58:38.150Z,96548.25
2023-11-27T10:01:07.379Z,96538.00
2023-11-27T10:03:36.023Z,96540.59
2023-11-27T10:06:04.186Z,96527.78
2023-11-27T10:08:30.754Z,96536.31
2023-11-27T10:10:57.462Z,96536.31
2023-11-27T10:13:46.645Z,96528.66
2023-11-27T10:16:24.508Z,96517.59
2023-11-27T10:18:53.306Z,96504.81
2023-11-27T10:21:22.671Z,96497.91
2023-11-27T10:23:51.075Z,96475.75
2023-11-27T10:26:20.791Z,96488.53
2023-11-27T10:28:49.431Z,96482.53
2023-11-27T10:31:16.255Z,96469.75
2023-11-27T10:33:42.999Z,96471.47
2023-11-27T10:36:10.965Z,96459.50
2023-11-27T10:38:37.722Z,96450.13
2023-11-27T10:41:06.555Z,96451.84
2023-11-27T10:43:34.905Z,96454.41
2023-11-27T10:46:04.243Z,96448.47
2023-11-27T10:48:41.080Z,96447.59
2023-11-27T10:51:11.489Z,96441.63
2023-11-27T10:53:38.030Z,96444.19
2023-11-27T10:56:04.696Z,96425.47
2023-11-27T10:58:31.312Z,96413.53
2023-11-27T11:00:58.433Z,96406.72
2023-11-27T11:03:25.246Z,96398.16
2023-11-27T11:05:53.060Z,96390.56
2023-11-27T11:08:28.411Z,96376.94
2023-11-27T11:10:56.199Z,96382.09
2023-11-27T11:13:24.102Z,96373.56
2023-11-27T11:16:10.191Z,96375.25
2023-11-27T11:18:49.720Z,96365.91
2023-11-27T11:21:27.901Z,96367.59
2023-11-27T11:24:10.095Z,96353.09
2023-11-27T11:27:09.183Z,96325.00
2023-11-27T11:29:37.355Z,96306.25
2023-11-27T11:32:09.495Z,96293.47
2023-11-27T11:34:40.035Z,96302.00
2023-11-27T11:37:07.345Z,96307.97
2023-11-27T11:39:37.845Z,96313.91
2023-11-27T11:42:05.643Z,96307.09
2023-11-27T11:44:37.026Z,96307.97
2023-11-27T11:47:09.700Z,96298.59
2023-11-27T11:49:36.566Z,96290.09
2023-11-27T11:52:09.553Z,96287.56
2023-11-27T11:54:39.674Z,96284.13
2023-11-27T11:57:14.018Z,96283.28
2023-11-27T11:59:40.723Z,96280.75
2023-11-27T12:02:12.523Z,96280.72
2023-11-27T12:04:42.258Z,96271.38
2023-11-27T12:07:09.692Z,96279.91
2023-11-27T12:09:36.312Z,96271.41
2023-11-27T12:12:02.857Z,96265.41
2023-11-27T12:14:33.628Z,96271.41
2023-11-27T12:17:01.145Z,96250.09
2023-11-27T12:19:28.836Z,96236.50
2023-11-27T12:21:55.538Z,96192.00
2023-11-27T12:24:22.659Z,96216.06
2023-11-27T12:26:53.412Z,96213.50
2023-11-27T12:29:23.725Z,96208.38
2023-11-27T12:31:54.540Z,96216.03
2023-11-27T12:34:27.161Z,96217.75
2023-11-27T12:36:56.678Z,96204.94
2023-11-27T12:39:29.322Z,96205.81
2023-11-27T12:42:02.678Z,96200.72
2023-11-27T12:44:32.758Z,96187.94
2023-11-27T12:47:06.348Z,96177.72
2023-11-27T12:49:36.383Z,96160.66
2023-11-27T12:52:12.857Z,96155.56
2023-11-27T12:54:39.605Z,96130.84
2023-11-27T12:57:11.220Z,96133.44
2023-11-27T12:59:41.699Z,96115.53
2023-11-27T13:02:08.417Z,96115.53
2023-11-27T13:04:39.137Z,96128.31
2023-11-27T13:07:07.525Z,96124.06
2023-11-27T13:09:34.355Z,96115.50
2023-11-27T13:12:15.892Z,96110.41
2023-11-27T13:14:44.318Z,96110.41
2023-11-27T13:17:19.853Z,96104.41
2023-11-27T13:19:50.685Z,96095.91
2023-11-27T13:22:18.377Z,96091.63
2023-11-27T13:24:45.163Z,96078.00
2023-11-27T13:27:17.266Z,96074.56
2023-11-27T13:29:45.439Z,96071.16
2023-11-27T13:32:15.303Z,96069.47
2023-11-27T13:34:56.006Z,96072.03
2023-11-27T13:37:24.188Z,96072.03
2023-11-27T13:40:01.704Z,96063.50
2023-11-27T13:42:31.970Z,96066.06
2023-11-27T13:44:59.129Z,96068.63
2023-11-27T13:47:25.826Z,96058.38
2023-11-27T13:49:58.608Z,96060.13
2023-11-27T13:52:32.445Z,96053.28
2023-11-27T13:54:59.703Z,96037.94
2023-11-27T13:57:30.110Z,96026.03
2023-11-27T14:00:00.872Z,96009.84
2023-11-27T14:02:38.269Z,95991.16
2023-11-27T14:05:09.837Z,95984.31
2023-11-27T14:07:42.265Z,95982.63
2023-11-27T14:10:23.752Z,95982.63
2023-11-27T14:12:58.879Z,95980.06
2023-11-27T14:15:25.552Z,95974.97
2023-11-27T14:18:18.225Z,95964.75
2023-11-27T14:20:52.372Z,95960.50
2023-11-27T14:23:37.917Z,95963.06
2023-11-27T14:26:10.789Z,95946.84
2023-11-27T14:29:00.571Z,95956.22
2023-11-27T14:31:28.834Z,95947.72
2023-11-27T14:33:55.419Z,95946.84
2023-11-27T14:36:21.958Z,95944.31
2023-11-27T14:38:49.710Z,95941.75
2023-11-27T14:41:18.197Z,95935.78
2023-11-27T14:43:45.042Z,95935.78
2023-11-27T14:46:13.106Z,95932.41
2023-11-27T14:48:42.383Z,95917.91
2023-11-27T14:51:10.999Z,95911.09
2023-11-27T14:53:38.200Z,95913.63
2023-11-27T14:56:10.860Z,95902.56
2023-11-27T14:58:37.967Z,95898.28
2023-11-27T15:01:08.890Z,95898.28
2023-11-27T15:03:40.439Z,95897.44
2023-11-27T15:06:10.281Z,95887.19
2023-11-27T15:08:36.835Z,95885.50
2023-11-27T15:11:06.702Z,95883.81
2023-11-27T15:13:36.660Z,95877.84
2023-11-27T15:16:04.621Z,95865.94
2023-11-27T15:18:32.777Z,95864.19
2023-11-27T15:20:59.473Z,95867.63
2023-11-27T15:23:26.014Z,95859.94
2023-11-27T15:25:53.610Z,95859.94
2023-11-27T15:28:24.786Z,95851.41
2023-11-27T15:30:55.607Z,95852.28
2023-11-27T15:33:24.351Z,95849.72
2023-11-27T15:35:55.688Z,95845.47
2023-11-27T15:38:25.085Z,95841.19
2023-11-27T15:40:52.325Z,95840.38
2023-11-27T15:43:19.002Z,95826.75
2023-11-27T15:45:45.643Z,95823.34
2023-11-27T15:48:13.322Z,95817.41
2023-11-27T15:50:39.954Z,95814.00
2023-11-27T15:53:07.508Z,95810.56
2023-11-27T15:55:35.104Z,95801.22
2023-11-27T15:58:05.334Z,95810.59
2023-11-27T16:00:32.887Z,95791.88
2023-11-27T16:02:59.979Z,95782.47
2023-11-27T16:05:27.479Z,95787.59
2023-11-27T16:07:54.216Z,95785.91
2023-11-27T16:10:23.419Z,95779.09
2023-11-27T16:12:53.107Z,95779.94
2023-11-27T16:15:21.333Z,95781.66
2023-11-27T16:17:58.725Z,95772.25
2023-11-27T16:20:27.523Z,95768.00
2023-11-27T16:22:54.905Z,95763.75
2023-11-27T16:25:23.048Z,95760.34
2023-11-27T16:27:49.730Z,95751.81
2023-11-27T16:30:22.138Z,95748.44
2023-11-27T16:32:49.564Z,95738.22
2023-11-27T16:35:16.477Z,95742.47
2023-11-27T16:37:43.690Z,95728.00
2023-11-27T16:40:16.125Z,95727.13
2023-11-27T16:42:43.766Z,95730.56
2023-11-27T16:45:11.543Z,95714.38
2023-11-27T16:47:38.143Z,95713.50
2023-11-27T16:50:14.270Z,95707.56
2023-11-27T16:52:45.080Z,95700.72
2023-11-27T16:55:19.120Z,95702.47
2023-11-27T16:57:50.593Z,95688.81
2023-11-27T17:00:33.484Z,95689.69
2023-11-27T17:03:01.642Z,95672.63
2023-11-27T17:05:32.853Z,95663.28
2023-11-27T17:07:59.456Z,95668.38
2023-11-27T17:10:28.715Z,95662.41
2023-11-27T17:12:58.587Z,95649.63
2023-11-27T17:15:26.742Z,95650.50
2023-11-27T17:17:53.539Z,95652.19
2023-11-27T17:20:21.890Z,95647.06
2023-11-27T17:23:00.087Z,95646.25
2023-11-27T17:25:32.916Z,95643.69
2023-11-27T17:27:59.987Z,95630.91
2023-11-27T17:30:26.741Z,95640.28
2023-11-27T17:32:53.431Z,95632.63
2023-11-27T17:35:20.813Z,95629.19
2023-11-27T17:37:47.548Z,95630.94
2023-11-27T17:40:14.929Z,95621.53
2023-11-27T17:42:42.235Z,95617.28
2023-11-27T17:45:14.874Z,95615.59
2023-11-27T17:47:42.387Z,95618.97
2023-11-27T17:50:14.300Z,95613.03
2023-11-27T17:52:42.741Z,95604.53
2023-11-27T17:55:14.625Z,95568.75
2023-11-27T17:57:42.285Z,95599.41
2023-11-27T18:00:14.975Z,95603.66
2023-11-27T18:02:42.851Z,95591.75
2023-11-27T18:05:10.286Z,95577.28
2023-11-27T18:07:38.406Z,95580.66
2023-11-27T18:10:05.310Z,95584.09
2023-11-27T18:12:32.133Z,95578.13
2023-11-27T18:14:58.748Z,95573.00
2023-11-27T18:17:25.397Z,95567.06
2023-11-27T18:19:51.969Z,95567.06
2023-11-27T18:22:18.581Z,95566.19
2023-11-27T18:24:46.480Z,95567.06
2023-11-27T18:27:14.948Z,95559.41
2023-11-27T18:29:41.664Z,95558.53
2023-11-27T18:32:08.390Z,95554.28
2023-11-27T18:34:34.995Z,95549.19
2023-11-27T18:37:03.398Z,95551.75
2023-11-27T18:39:33.617Z,95549.19
2023-11-27T18:42:02.034Z,95552.56
2023-11-27T18:44:28.747Z,95533.00
2023-11-27T18:46:55.960Z,95540.66
2023-11-27T18:49:25.514Z,95539.78
2023-11-27T18:51:55.365Z,95535.56
2023-11-27T18:54:22.008Z,95539.78
2023-11-27T18:56:49.841Z,95534.69
2023-11-27T18:59:17.667Z,95528.75
2023-11-27T19:01:44.387Z,95526.19
2023-11-27T19:04:11.106Z,95520.22
2023-11-27T19:06:37.721Z,95515.97
2023-11-27T19:09:04.732Z,95511.69
2023-11-27T19:11:31.294Z,95512.56
2023-11-27T19:13:57.827Z,95510.00
2023-11-27T19:16:25.031Z,95499.78
2023-11-27T19:18:54.274Z,95497.22
2023-11-27T19:21:21.163Z,95501.47
2023-11-27T19:23:47.790Z,95484.47
2023-11-27T19:26:14.890Z,95481.03
2023-11-27T19:28:43.180Z,95475.09
2023-11-27T19:31:10.899Z,95470.81
2023-11-27T19:33:37.496Z,95469.13
2023-11-27T19:36:04.777Z,95462.31
2023-11-27T19:38:31.433Z,95461.47
2023-11-27T19:40:58.097Z,95461.47
2023-11-27T19:43:25.113Z,95458.03
2023-11-27T19:45:53.425Z,95452.94
2023-11-27T19:48:20.468Z,95449.56
2023-11-27T19:50:47.042Z,95456.34
2023-11-27T19:53:16.178Z,95445.28
2023-11-27T19:55:42.806Z,95448.69
2023-11-27T19:58:09.402Z,95437.63
2023-11-27T20:00:35.982Z,95443.59
2023-11-27T20:03:04.663Z,95444.44
2023-11-27T20:05:32.088Z,95432.50
2023-11-27T20:07:58.718Z,95431.69
2023-11-27T20:10:25.368Z,95429.13
2023-11-27T20:12:52.327Z,95415.50
2023-11-27T20:15:18.961Z,95423.16
2023-11-27T20:17:45.566Z,95413.81
2023-11-27T20:20:15.770Z,95414.63
2023-11-27T20:22:43.684Z,95408.69
2023-11-27T20:25:13.411Z,95393.38
2023-11-27T20:27:40.496Z,95401.84
2023-11-27T20:30:10.688Z,95399.28
2023-11-27T20:32:37.416Z,95388.28
2023-11-27T20:35:04.292Z,95399.28
2023-11-27T20:37:30.933Z,95402.72
2023-11-27T20:39:57.681Z,95394.19
2023-11-27T20:42:24.901Z,95387.38
2023-11-27T20:44:55.976Z,95382.28
2023-11-27T20:47:23.889Z,95378.03
2023-11-27T20:49:55.572Z,95377.16
2023-11-27T20:52:23.298Z,95378.84
2023-11-27T20:54:49.930Z,95375.47
2023-11-27T20:57:16.604Z,95378.84
2023-11-27T20:59:43.598Z,95373.75
2023-11-27T21:02:10.284Z,95371.19
2023-11-27T21:04:42.458Z,95370.38
2023-11-27T21:07:12.259Z,95365.25
2023-11-27T21:09:39.087Z,95356.72
2023-11-27T21:12:06.204Z,95356.72
2023-11-27T21:14:32.732Z,95354.16
2023-11-27T21:17:01.592Z,95356.72
2023-11-27T21:19:30.535Z,95355.03
2023-11-27T21:21:57.086Z,95349.94
2023-11-27T21:24:23.602Z,95349.94
2023-11-27T21:26:50.174Z,95348.19
2023-11-27T21:29:16.797Z,95342.25
2023-11-27T21:31:43.433Z,95352.47
2023-11-27T21:34:10.102Z,95339.72
2023-11-27T21:36:37.404Z,95342.28
2023-11-27T21:39:05.083Z,95343.09
2023-11-27T21:41:33.787Z,95337.16
2023-11-27T21:44:00.836Z,95338.00
2023-11-27T21:46:27.735Z,95329.50
2023-11-27T21:48:55.502Z,95337.16
2023-11-27T21:51:22.055Z,95332.88
2023-11-27T21:53:48.640Z,95323.53
2023-11-27T21:56:15.260Z,95322.66
2023-11-27T21:58:41.920Z,95324.38
2023-11-27T22:01:17.138Z,95326.06
2023-11-27T22:03:45.207Z,95320.09
2023-11-27T22:06:11.964Z,95319.25
2023-11-27T22:08:38.484Z,95320.94
2023-11-27T22:11:06.327Z,95316.72
2023-11-27T22:13:32.929Z,95317.53
2023-11-27T22:15:59.528Z,95308.19
2023-11-27T22:18:26.199Z,95315.84
2023-11-27T22:20:53.584Z,95311.59
2023-11-27T22:23:20.158Z,95303.94
2023-11-27T22:25:46.705Z,95306.50
2023-11-27T22:28:13.435Z,95299.66
2023-11-27T22:30:40.994Z,95295.44
2023-11-27T22:33:07.666Z,95295.41
2023-11-27T22:35:34.213Z,95295.41
2023-11-27T22:38:00.846Z,95293.72
2023-11-27T22:40:27.645Z,95285.19
2023-11-27T22:42:54.790Z,95286.06
2023-11-27T22:45:21.765Z,95280.09
2023-11-27T22:47:49.158Z,95278.41
2023-11-27T22:50:16.094Z,95275.84
2023-11-27T22:52:42.766Z,95263.91
2023-11-27T22:55:09.321Z,95266.47
2023-11-27T22:57:35.892Z,95260.53
2023-11-27T23:00:02.892Z,95264.78
2023-11-27T23:02:30.113Z,95252.00
2023-11-27T23:04:56.824Z,95252.88
2023-11-27T23:07:23.504Z,95243.50
2023-11-27T23:09:51.500Z,95240.94
2023-11-27T23:12:18.107Z,95243.47
2023-11-27T23:14:44.611Z,95240.09
2023-11-27T23:17:11.259Z,95237.53
2023-11-27T23:19:37.881Z,95234.97
2023-11-27T23:22:04.715Z,95234.13
2023-11-27T23:24:31.346Z,95240.09
2023-11-27T23:26:58.155Z,95232.44
2023-11-27T23:29:24.712Z,95230.72
2023-11-27T23:31:54.447Z,95229.00
2023-11-27T23:34:23.703Z,95224.75
2023-11-27T23:36:50.276Z,95215.38
2023-11-27T23:39:17.733Z,95218.78
2023-11-27T23:41:44.269Z,95206.91
2023-11-27T23:44:10.797Z,95201.78
2023-11-27T23:46:37.601Z,95200.06
2023-11-27T23:49:04.438Z,95195.81
2023-11-27T23:51:31.083Z,95194.13
2023-11-27T23:53:57.602Z,95195.81
2023-11-27T23:56:24.424Z,95188.16
2023-11-27T23:58:51.445Z,95188.16
